Barras, Brazil
Current Conditions -  °F | °C
As of 11:00 PM on Saturday 22 Nov 2014 (Local Time) from SBTE Reporting Station
Clear Clear  
Wind Chill: 29°   Ceiling: Unl
Heat Index: 31°   Visibility: 6mi
Dew Point: 21°   Wind: 7mph
Humidity: 62%   Direction: 360°N
Pressure: 29.83"   Gusts: NA
Location:  4.24°S, 42.29°W
Report Text: SBTE 230200Z 36006KT CAVOK 29/21 Q1010
Loading
Personal Weather Stations






























Interactive Weather Map New forecast layout! Learn more

10-Day Weather Forecast

Advertisements
Track Severe Weather on mobile